sensor_id;sensor_type;location;lat;lon;timestamp;temperature;humidity
64034;SHT31;50280;49.864;8.638;2022-12-18T00:01:36;-7.81;88.43
64034;SHT31;50280;49.864;8.638;2022-12-18T00:04:14;-7.77;88.40
64034;SHT31;50280;49.864;8.638;2022-12-18T00:06:52;-7.81;88.26
64034;SHT31;50280;49.864;8.638;2022-12-18T00:09:25;-7.77;88.10
64034;SHT31;50280;49.864;8.638;2022-12-18T00:11:57;-7.81;88.06
64034;SHT31;50280;49.864;8.638;2022-12-18T00:14:29;-7.81;88.14
64034;SHT31;50280;49.864;8.638;2022-12-18T00:17:02;-7.82;87.96
64034;SHT31;50280;49.864;8.638;2022-12-18T00:19:34;-7.83;87.77
64034;SHT31;50280;49.864;8.638;2022-12-18T00:22:06;-7.83;87.68
64034;SHT31;50280;49.864;8.638;2022-12-18T00:24:38;-7.85;87.69
64034;SHT31;50280;49.864;8.638;2022-12-18T00:27:10;-7.86;87.63
64034;SHT31;50280;49.864;8.638;2022-12-18T00:29:42;-7.86;87.79
64034;SHT31;50280;49.864;8.638;2022-12-18T00:32:15;-7.88;87.76
64034;SHT31;50280;49.864;8.638;2022-12-18T00:34:47;-7.92;87.70
64034;SHT31;50280;49.864;8.638;2022-12-18T00:37:19;-7.92;87.79
64034;SHT31;50280;49.864;8.638;2022-12-18T00:39:51;-7.95;87.68
64034;SHT31;50280;49.864;8.638;2022-12-18T00:42:23;-7.92;87.76
64034;SHT31;50280;49.864;8.638;2022-12-18T00:44:55;-7.93;87.70
64034;SHT31;50280;49.864;8.638;2022-12-18T00:47:28;-7.98;87.69
64034;SHT31;50280;49.864;8.638;2022-12-18T00:50:00;-7.98;87.60
64034;SHT31;50280;49.864;8.638;2022-12-18T00:52:32;-7.99;87.62
64034;SHT31;50280;49.864;8.638;2022-12-18T00:55:05;-8.02;86.83
64034;SHT31;50280;49.864;8.638;2022-12-18T00:57:37;-8.07;86.31
64034;SHT31;50280;49.864;8.638;2022-12-18T01:00:10;-8.14;86.17
64034;SHT31;50280;49.864;8.638;2022-12-18T01:02:47;-8.23;86.26
64034;SHT31;50280;49.864;8.638;2022-12-18T01:05:19;-8.27;86.61
64034;SHT31;50280;49.864;8.638;2022-12-18T01:07:51;-8.30;86.85
64034;SHT31;50280;49.864;8.638;2022-12-18T01:10:24;-8.30;86.83
64034;SHT31;50280;49.864;8.638;2022-12-18T01:12:56;-8.33;86.66
64034;SHT31;50280;49.864;8.638;2022-12-18T01:15:28;-8.36;86.63
64034;SHT31;50280;49.864;8.638;2022-12-18T01:18:02;-8.34;86.68
64034;SHT31;50280;49.864;8.638;2022-12-18T01:20:37;-8.37;86.71
64034;SHT31;50280;49.864;8.638;2022-12-18T01:23:09;-8.38;86.75
64034;SHT31;50280;49.864;8.638;2022-12-18T01:25:41;-8.37;87.02
64034;SHT31;50280;49.864;8.638;2022-12-18T01:28:13;-8.38;87.59
64034;SHT31;50280;49.864;8.638;2022-12-18T01:30:46;-8.37;87.87
64034;SHT31;50280;49.864;8.638;2022-12-18T01:33:19;-8.31;88.05
64034;SHT31;50280;49.864;8.638;2022-12-18T01:35:51;-8.31;88.19
64034;SHT31;50280;49.864;8.638;2022-12-18T01:38:23;-8.30;88.45
64034;SHT31;50280;49.864;8.638;2022-12-18T01:40:56;-8.27;88.54
64034;SHT31;50280;49.864;8.638;2022-12-18T01:43:42;-8.26;88.38
64034;SHT31;50280;49.864;8.638;2022-12-18T01:46:17;-8.21;88.24
64034;SHT31;50280;49.864;8.638;2022-12-18T01:48:54;-8.23;88.22
64034;SHT31;50280;49.864;8.638;2022-12-18T01:51:31;-8.21;88.22
64034;SHT31;50280;49.864;8.638;2022-12-18T01:54:04;-8.20;88.26
64034;SHT31;50280;49.864;8.638;2022-12-18T01:56:36;-8.20;88.28
64034;SHT31;50280;49.864;8.638;2022-12-18T01:59:08;-8.17;88.30
64034;SHT31;50280;49.864;8.638;2022-12-18T02:01:43;-8.16;88.33
64034;SHT31;50280;49.864;8.638;2022-12-18T02:04:23;-8.16;88.25
64034;SHT31;50280;49.864;8.638;2022-12-18T02:06:58;-8.17;88.25
64034;SHT31;50280;49.864;8.638;2022-12-18T02:09:49;-8.14;88.51
64034;SHT31;50280;49.864;8.638;2022-12-18T02:12:30;-8.10;88.33
64034;SHT31;50280;49.864;8.638;2022-12-18T02:15:15;-8.13;88.22
64034;SHT31;50280;49.864;8.638;2022-12-18T02:17:57;-8.10;88.37
64034;SHT31;50280;49.864;8.638;2022-12-18T02:20:39;-8.09;88.40
64034;SHT31;50280;49.864;8.638;2022-12-18T02:23:22;-8.10;88.34
64034;SHT31;50280;49.864;8.638;2022-12-18T02:26:18;-8.07;88.41
64034;SHT31;50280;49.864;8.638;2022-12-18T02:28:59;-8.07;88.50
64034;SHT31;50280;49.864;8.638;2022-12-18T02:31:40;-8.03;88.79
64034;SHT31;50280;49.864;8.638;2022-12-18T02:34:22;-7.99;88.74
64034;SHT31;50280;49.864;8.638;2022-12-18T02:36:59;-7.98;88.59
64034;SHT31;50280;49.864;8.638;2022-12-18T02:39:37;-7.95;88.43
64034;SHT31;50280;49.864;8.638;2022-12-18T02:42:15;-7.91;88.56
64034;SHT31;50280;49.864;8.638;2022-12-18T02:44:49;-7.91;88.49
64034;SHT31;50280;49.864;8.638;2022-12-18T02:47:27;-7.88;88.57
64034;SHT31;50280;49.864;8.638;2022-12-18T02:50:06;-7.85;88.36
64034;SHT31;50280;49.864;8.638;2022-12-18T02:52:52;-7.86;89.06
64034;SHT31;50280;49.864;8.638;2022-12-18T02:55:44;-7.79;89.80
64034;SHT31;50280;49.864;8.638;2022-12-18T02:58:38;-7.72;90.35
64034;SHT31;50280;49.864;8.638;2022-12-18T03:01:28;-7.59;90.36
64034;SHT31;50280;49.864;8.638;2022-12-18T03:04:10;-7.52;89.92
64034;SHT31;50280;49.864;8.638;2022-12-18T03:06:53;-7.47;89.52
64034;SHT31;50280;49.864;8.638;2022-12-18T03:09:29;-7.43;89.17
64034;SHT31;50280;49.864;8.638;2022-12-18T03:12:06;-7.36;88.72
64034;SHT31;50280;49.864;8.638;2022-12-18T03:14:49;-7.34;88.02
64034;SHT31;50280;49.864;8.638;2022-12-18T03:17:31;-7.34;87.49
64034;SHT31;50280;49.864;8.638;2022-12-18T03:20:06;-7.34;87.12
64034;SHT31;50280;49.864;8.638;2022-12-18T03:22:45;-7.38;87.09
64034;SHT31;50280;49.864;8.638;2022-12-18T03:25:24;-7.40;87.04
64034;SHT31;50280;49.864;8.638;2022-12-18T03:27:59;-7.43;87.13
64034;SHT31;50280;49.864;8.638;2022-12-18T03:30:39;-7.44;87.12
64034;SHT31;50280;49.864;8.638;2022-12-18T03:33:15;-7.46;87.08
64034;SHT31;50280;49.864;8.638;2022-12-18T03:35:55;-7.48;87.09
64034;SHT31;50280;49.864;8.638;2022-12-18T03:38:27;-7.52;87.08
64034;SHT31;50280;49.864;8.638;2022-12-18T03:41:01;-7.55;87.08
64034;SHT31;50280;49.864;8.638;2022-12-18T03:43:48;-7.57;87.07
64034;SHT31;50280;49.864;8.638;2022-12-18T03:46:33;-7.58;86.95
64034;SHT31;50280;49.864;8.638;2022-12-18T03:49:19;-7.58;86.61
64034;SHT31;50280;49.864;8.638;2022-12-18T03:52:02;-7.61;86.57
64034;SHT31;50280;49.864;8.638;2022-12-18T03:54:40;-7.64;86.70
64034;SHT31;50280;49.864;8.638;2022-12-18T03:57:16;-7.67;86.48
64034;SHT31;50280;49.864;8.638;2022-12-18T03:59:54;-7.71;86.61
64034;SHT31;50280;49.864;8.638;2022-12-18T04:02:33;-7.74;86.64
64034;SHT31;50280;49.864;8.638;2022-12-18T04:05:12;-7.75;86.82
64034;SHT31;50280;49.864;8.638;2022-12-18T04:07:47;-7.78;87.01
64034;SHT31;50280;49.864;8.638;2022-12-18T04:10:22;-7.78;87.08
64034;SHT31;50280;49.864;8.638;2022-12-18T04:12:55;-7.77;87.13
64034;SHT31;50280;49.864;8.638;2022-12-18T04:15:27;-7.75;87.30
64034;SHT31;50280;49.864;8.638;2022-12-18T04:18:01;-7.75;87.47
64034;SHT31;50280;49.864;8.638;2022-12-18T04:20:33;-7.71;87.79
64034;SHT31;50280;49.864;8.638;2022-12-18T04:23:05;-7.70;87.82
64034;SHT31;50280;49.864;8.638;2022-12-18T04:25:37;-7.65;87.71
64034;SHT31;50280;49.864;8.638;2022-12-18T04:28:09;-7.65;87.51
64034;SHT31;50280;49.864;8.638;2022-12-18T04:30:41;-7.65;87.45
64034;SHT31;50280;49.864;8.638;2022-12-18T04:33:14;-7.62;87.51
64034;SHT31;50280;49.864;8.638;2022-12-18T04:35:48;-7.64;87.28
64034;SHT31;50280;49.864;8.638;2022-12-18T04:38:20;-7.65;87.16
64034;SHT31;50280;49.864;8.638;2022-12-18T04:40:52;-7.68;87.02
64034;SHT31;50280;49.864;8.638;2022-12-18T04:43:24;-7.68;86.87
64034;SHT31;50280;49.864;8.638;2022-12-18T04:46:01;-7.71;87.15
64034;SHT31;50280;49.864;8.638;2022-12-18T04:48:35;-7.74;87.14
64034;SHT31;50280;49.864;8.638;2022-12-18T04:51:09;-7.75;87.14
64034;SHT31;50280;49.864;8.638;2022-12-18T04:53:41;-7.77;87.19
64034;SHT31;50280;49.864;8.638;2022-12-18T04:56:13;-7.81;87.38
64034;SHT31;50280;49.864;8.638;2022-12-18T04:58:47;-7.79;87.57
64034;SHT31;50280;49.864;8.638;2022-12-18T05:01:19;-7.78;87.48
64034;SHT31;50280;49.864;8.638;2022-12-18T05:03:53;-7.78;87.63
64034;SHT31;50280;49.864;8.638;2022-12-18T05:06:25;-7.79;87.71
64034;SHT31;50280;49.864;8.638;2022-12-18T05:08:57;-7.78;87.95
64034;SHT31;50280;49.864;8.638;2022-12-18T05:11:30;-7.78;88.13
64034;SHT31;50280;49.864;8.638;2022-12-18T05:14:02;-7.77;87.99
64034;SHT31;50280;49.864;8.638;2022-12-18T05:16:34;-7.75;87.85
64034;SHT31;50280;49.864;8.638;2022-12-18T05:19:08;-7.75;87.81
64034;SHT31;50280;49.864;8.638;2022-12-18T05:21:40;-7.77;87.86
64034;SHT31;50280;49.864;8.638;2022-12-18T05:24:12;-7.77;87.81
64034;SHT31;50280;49.864;8.638;2022-12-18T05:26:44;-7.77;87.76
64034;SHT31;50280;49.864;8.638;2022-12-18T05:29:16;-7.78;87.67
64034;SHT31;50280;49.864;8.638;2022-12-18T05:31:48;-7.79;87.67
64034;SHT31;50280;49.864;8.638;2022-12-18T05:34:21;-7.78;87.71
64034;SHT31;50280;49.864;8.638;2022-12-18T05:36:53;-7.78;87.75
64034;SHT31;50280;49.864;8.638;2022-12-18T05:39:25;-7.81;87.58
64034;SHT31;50280;49.864;8.638;2022-12-18T05:41:57;-7.81;87.56
64034;SHT31;50280;49.864;8.638;2022-12-18T05:44:29;-7.86;87.60
64034;SHT31;50280;49.864;8.638;2022-12-18T05:47:01;-7.88;87.56
64034;SHT31;50280;49.864;8.638;2022-12-18T05:49:35;-7.91;86.93
64034;SHT31;50280;49.864;8.638;2022-12-18T05:52:07;-8.02;85.74
64034;SHT31;50280;49.864;8.638;2022-12-18T05:54:39;-8.17;84.86
64034;SHT31;50280;49.864;8.638;2022-12-18T05:57:11;-8.30;85.26
64034;SHT31;50280;49.864;8.638;2022-12-18T05:59:43;-8.40;85.70
64034;SHT31;50280;49.864;8.638;2022-12-18T06:02:15;-8.51;86.04
64034;SHT31;50280;49.864;8.638;2022-12-18T06:04:48;-8.57;86.38
64034;SHT31;50280;49.864;8.638;2022-12-18T06:07:20;-8.61;86.69
64034;SHT31;50280;49.864;8.638;2022-12-18T06:09:52;-8.66;86.89
64034;SHT31;50280;49.864;8.638;2022-12-18T06:12:24;-8.66;87.02
64034;SHT31;50280;49.864;8.638;2022-12-18T06:14:56;-8.69;87.09
64034;SHT31;50280;49.864;8.638;2022-12-18T06:17:28;-8.71;87.20
64034;SHT31;50280;49.864;8.638;2022-12-18T06:20:02;-8.73;87.19
64034;SHT31;50280;49.864;8.638;2022-12-18T06:22:36;-8.72;87.46
64034;SHT31;50280;49.864;8.638;2022-12-18T06:25:08;-8.76;87.50
64034;SHT31;50280;49.864;8.638;2022-12-18T06:27:40;-8.76;87.79
64034;SHT31;50280;49.864;8.638;2022-12-18T06:30:12;-8.76;87.93
64034;SHT31;50280;49.864;8.638;2022-12-18T06:32:45;-8.79;87.78
64034;SHT31;50280;49.864;8.638;2022-12-18T06:35:20;-8.86;86.98
64034;SHT31;50280;49.864;8.638;2022-12-18T06:37:52;-8.91;86.85
64034;SHT31;50280;49.864;8.638;2022-12-18T06:40:24;-9.00;87.13
64034;SHT31;50280;49.864;8.638;2022-12-18T06:42:56;-9.07;87.31
64034;SHT31;50280;49.864;8.638;2022-12-18T06:45:29;-9.16;87.33
64034;SHT31;50280;49.864;8.638;2022-12-18T06:48:01;-9.27;87.58
64034;SHT31;50280;49.864;8.638;2022-12-18T06:50:34;-9.34;87.87
64034;SHT31;50280;49.864;8.638;2022-12-18T06:53:06;-9.42;88.24
64034;SHT31;50280;49.864;8.638;2022-12-18T06:55:38;-9.47;88.56
64034;SHT31;50280;49.864;8.638;2022-12-18T06:58:10;-9.55;88.86
64034;SHT31;50280;49.864;8.638;2022-12-18T07:00:42;-9.55;89.25
64034;SHT31;50280;49.864;8.638;2022-12-18T07:03:14;-9.58;89.43
64034;SHT31;50280;49.864;8.638;2022-12-18T07:05:48;-9.60;89.42
64034;SHT31;50280;49.864;8.638;2022-12-18T07:08:20;-9.66;89.22
64034;SHT31;50280;49.864;8.638;2022-12-18T07:10:52;-9.69;89.28
64034;SHT31;50280;49.864;8.638;2022-12-18T07:13:24;-9.73;89.36
64034;SHT31;50280;49.864;8.638;2022-12-18T07:16:02;-9.76;89.66
64034;SHT31;50280;49.864;8.638;2022-12-18T07:18:36;-9.80;89.59
64034;SHT31;50280;49.864;8.638;2022-12-18T07:21:11;-9.84;89.26
64034;SHT31;50280;49.864;8.638;2022-12-18T07:23:46;-9.90;89.14
64034;SHT31;50280;49.864;8.638;2022-12-18T07:26:18;-9.93;89.14
64034;SHT31;50280;49.864;8.638;2022-12-18T07:28:54;-10.01;89.63
64034;SHT31;50280;49.864;8.638;2022-12-18T07:31:27;-10.10;90.42
64034;SHT31;50280;49.864;8.638;2022-12-18T07:33:59;-10.18;90.82
64034;SHT31;50280;49.864;8.638;2022-12-18T07:36:32;-10.27;91.01
64034;SHT31;50280;49.864;8.638;2022-12-18T07:39:04;-10.37;91.56
64034;SHT31;50280;49.864;8.638;2022-12-18T07:41:37;-10.44;91.87
64034;SHT31;50280;49.864;8.638;2022-12-18T07:44:09;-10.46;92.03
64034;SHT31;50280;49.864;8.638;2022-12-18T07:46:42;-10.49;92.32
64034;SHT31;50280;49.864;8.638;2022-12-18T07:49:14;-10.46;92.23
64034;SHT31;50280;49.864;8.638;2022-12-18T07:51:47;-10.45;92.17
64034;SHT31;50280;49.864;8.638;2022-12-18T07:54:19;-10.46;92.21
64034;SHT31;50280;49.864;8.638;2022-12-18T07:56:51;-10.49;92.18
64034;SHT31;50280;49.864;8.638;2022-12-18T07:59:23;-10.52;92.10
64034;SHT31;50280;49.864;8.638;2022-12-18T08:01:55;-10.55;92.24
64034;SHT31;50280;49.864;8.638;2022-12-18T08:04:27;-10.56;92.48
64034;SHT31;50280;49.864;8.638;2022-12-18T08:07:00;-10.53;92.57
64034;SHT31;50280;49.864;8.638;2022-12-18T08:09:33;-10.52;92.59
64034;SHT31;50280;49.864;8.638;2022-12-18T08:12:05;-10.53;92.63
64034;SHT31;50280;49.864;8.638;2022-12-18T08:14:37;-10.49;92.68
64034;SHT31;50280;49.864;8.638;2022-12-18T08:17:09;-10.45;92.60
64034;SHT31;50280;49.864;8.638;2022-12-18T08:19:41;-10.42;92.51
64034;SHT31;50280;49.864;8.638;2022-12-18T08:22:15;-10.39;92.31
64034;SHT31;50280;49.864;8.638;2022-12-18T08:24:47;-10.34;92.29
64034;SHT31;50280;49.864;8.638;2022-12-18T08:27:19;-10.32;92.27
64034;SHT31;50280;49.864;8.638;2022-12-18T08:29:51;-10.25;92.34
64034;SHT31;50280;49.864;8.638;2022-12-18T08:32:23;-10.21;92.03
64034;SHT31;50280;49.864;8.638;2022-12-18T08:34:55;-10.16;92.04
64034;SHT31;50280;49.864;8.638;2022-12-18T08:37:29;-10.10;91.96
64034;SHT31;50280;49.864;8.638;2022-12-18T08:40:01;-10.04;91.97
64034;SHT31;50280;49.864;8.638;2022-12-18T08:42:34;-9.97;92.04
64034;SHT31;50280;49.864;8.638;2022-12-18T08:45:07;-9.86;92.03
64034;SHT31;50280;49.864;8.638;2022-12-18T08:47:40;-9.83;91.84
64034;SHT31;50280;49.864;8.638;2022-12-18T08:50:12;-9.70;91.92
64034;SHT31;50280;49.864;8.638;2022-12-18T08:52:45;-9.62;91.95
64034;SHT31;50280;49.864;8.638;2022-12-18T08:55:17;-9.54;91.74
64034;SHT31;50280;49.864;8.638;2022-12-18T08:57:50;-9.45;91.51
64034;SHT31;50280;49.864;8.638;2022-12-18T09:00:22;-9.35;91.27
64034;SHT31;50280;49.864;8.638;2022-12-18T09:02:54;-9.28;90.90
64034;SHT31;50280;49.864;8.638;2022-12-18T09:05:26;-9.24;90.54
64034;SHT31;50280;49.864;8.638;2022-12-18T09:07:59;-9.16;90.48
64034;SHT31;50280;49.864;8.638;2022-12-18T09:10:31;-9.07;90.63
64034;SHT31;50280;49.864;8.638;2022-12-18T09:13:03;-8.97;90.61
64034;SHT31;50280;49.864;8.638;2022-12-18T09:15:39;-8.85;90.71
64034;SHT31;50280;49.864;8.638;2022-12-18T09:18:13;-8.75;90.70
64034;SHT31;50280;49.864;8.638;2022-12-18T09:20:47;-8.61;90.65
64034;SHT31;50280;49.864;8.638;2022-12-18T09:23:21;-8.45;90.69
64034;SHT31;50280;49.864;8.638;2022-12-18T09:25:58;-8.33;90.52
64034;SHT31;50280;49.864;8.638;2022-12-18T09:28:30;-8.20;90.35
64034;SHT31;50280;49.864;8.638;2022-12-18T09:31:06;-8.07;90.38
64034;SHT31;50280;49.864;8.638;2022-12-18T09:33:39;-7.95;90.37
64034;SHT31;50280;49.864;8.638;2022-12-18T09:36:13;-7.77;90.39
64034;SHT31;50280;49.864;8.638;2022-12-18T09:38:49;-7.61;90.75
64034;SHT31;50280;49.864;8.638;2022-12-18T09:41:29;-7.37;91.18
64034;SHT31;50280;49.864;8.638;2022-12-18T09:44:17;-7.06;91.59
64034;SHT31;50280;49.864;8.638;2022-12-18T09:47:02;-6.77;91.23
64034;SHT31;50280;49.864;8.638;2022-12-18T09:49:42;-6.48;90.75
64034;SHT31;50280;49.864;8.638;2022-12-18T09:52:17;-6.19;89.78
64034;SHT31;50280;49.864;8.638;2022-12-18T09:55:00;-5.88;88.18
64034;SHT31;50280;49.864;8.638;2022-12-18T09:57:42;-5.56;86.51
64034;SHT31;50280;49.864;8.638;2022-12-18T10:00:23;-5.30;85.68
64034;SHT31;50280;49.864;8.638;2022-12-18T10:02:58;-5.02;83.76
64034;SHT31;50280;49.864;8.638;2022-12-18T10:05:35;-4.81;82.22
64034;SHT31;50280;49.864;8.638;2022-12-18T10:08:20;-4.60;81.26
64034;SHT31;50280;49.864;8.638;2022-12-18T10:11:11;-4.42;80.08
64034;SHT31;50280;49.864;8.638;2022-12-18T10:14:05;-4.24;78.96
64034;SHT31;50280;49.864;8.638;2022-12-18T10:16:52;-4.08;78.31
64034;SHT31;50280;49.864;8.638;2022-12-18T10:19:39;-3.89;78.28
64034;SHT31;50280;49.864;8.638;2022-12-18T10:22:19;-3.64;77.59
64034;SHT31;50280;49.864;8.638;2022-12-18T10:25:15;-3.44;76.09
64034;SHT31;50280;49.864;8.638;2022-12-18T10:27:57;-3.24;75.40
64034;SHT31;50280;49.864;8.638;2022-12-18T10:30:39;-3.04;74.43
64034;SHT31;50280;49.864;8.638;2022-12-18T10:33:13;-2.90;73.10
64034;SHT31;50280;49.864;8.638;2022-12-18T10:35:49;-2.82;72.82
64034;SHT31;50280;49.864;8.638;2022-12-18T10:38:24;-2.76;72.15
64034;SHT31;50280;49.864;8.638;2022-12-18T10:40:59;-2.69;72.02
64034;SHT31;50280;49.864;8.638;2022-12-18T10:43:35;-2.66;71.87
64034;SHT31;50280;49.864;8.638;2022-12-18T10:46:12;-2.63;72.15
64034;SHT31;50280;49.864;8.638;2022-12-18T10:48:50;-2.62;71.56
64034;SHT31;50280;49.864;8.638;2022-12-18T10:51:26;-2.66;71.15
64034;SHT31;50280;49.864;8.638;2022-12-18T10:54:02;-2.68;71.35
64034;SHT31;50280;49.864;8.638;2022-12-18T10:56:38;-2.63;71.56
64034;SHT31;50280;49.864;8.638;2022-12-18T10:59:12;-2.58;71.42
64034;SHT31;50280;49.864;8.638;2022-12-18T11:01:48;-2.56;70.64
64034;SHT31;50280;49.864;8.638;2022-12-18T11:04:24;-2.62;70.94
64034;SHT31;50280;49.864;8.638;2022-12-18T11:06:58;-2.66;70.77
64034;SHT31;50280;49.864;8.638;2022-12-18T11:09:33;-2.72;71.11
64034;SHT31;50280;49.864;8.638;2022-12-18T11:12:15;-2.68;71.14
64034;SHT31;50280;49.864;8.638;2022-12-18T11:14:52;-2.59;71.09
64034;SHT31;50280;49.864;8.638;2022-12-18T11:17:28;-2.48;70.72
64034;SHT31;50280;49.864;8.638;2022-12-18T11:20:04;-2.38;70.35
64034;SHT31;50280;49.864;8.638;2022-12-18T11:22:57;-2.18;70.17
64034;SHT31;50280;49.864;8.638;2022-12-18T11:25:32;-2.01;69.45
64034;SHT31;50280;49.864;8.638;2022-12-18T11:28:06;-1.82;69.06
64034;SHT31;50280;49.864;8.638;2022-12-18T11:31:27;-1.66;68.23
64034;SHT31;50280;49.864;8.638;2022-12-18T11:34:01;-1.55;67.98
64034;SHT31;50280;49.864;8.638;2022-12-18T11:36:43;-1.51;67.51
64034;SHT31;50280;49.864;8.638;2022-12-18T11:39:18;-1.48;67.61
64034;SHT31;50280;49.864;8.638;2022-12-18T11:42:04;-1.38;68.01
64034;SHT31;50280;49.864;8.638;2022-12-18T11:44:46;-1.31;67.50
64034;SHT31;50280;49.864;8.638;2022-12-18T11:47:27;-1.16;67.21
64034;SHT31;50280;49.864;8.638;2022-12-18T11:50:11;-1.10;66.61
64034;SHT31;50280;49.864;8.638;2022-12-18T11:52:47;-1.07;66.41
64034;SHT31;50280;49.864;8.638;2022-12-18T11:55:22;-1.09;66.85
64034;SHT31;50280;49.864;8.638;2022-12-18T11:58:08;-1.03;66.82
64034;SHT31;50280;49.864;8.638;2022-12-18T12:00:57;-1.06;66.74
64034;SHT31;50280;49.864;8.638;2022-12-18T12:03:59;-1.09;66.79
64034;SHT31;50280;49.864;8.638;2022-12-18T12:07:00;-1.13;67.12
64034;SHT31;50280;49.864;8.638;2022-12-18T12:09:50;-1.16;67.40
64034;SHT31;50280;49.864;8.638;2022-12-18T12:12:43;-1.18;67.75
64034;SHT31;50280;49.864;8.638;2022-12-18T12:15:38;-1.20;67.96
64034;SHT31;50280;49.864;8.638;2022-12-18T12:18:24;-1.27;68.26
64034;SHT31;50280;49.864;8.638;2022-12-18T12:21:14;-1.31;68.53
64034;SHT31;50280;49.864;8.638;2022-12-18T12:24:01;-1.37;68.67
64034;SHT31;50280;49.864;8.638;2022-12-18T12:26:52;-1.41;69.33
64034;SHT31;50280;49.864;8.638;2022-12-18T12:29:40;-1.44;69.57
64034;SHT31;50280;49.864;8.638;2022-12-18T12:32:30;-1.43;69.35
64034;SHT31;50280;49.864;8.638;2022-12-18T12:35:26;-1.45;69.04
64034;SHT31;50280;49.864;8.638;2022-12-18T12:38:19;-1.50;69.19
64034;SHT31;50280;49.864;8.638;2022-12-18T12:40:59;-1.52;69.47
64034;SHT31;50280;49.864;8.638;2022-12-18T12:43:36;-1.51;70.25
64034;SHT31;50280;49.864;8.638;2022-12-18T12:46:15;-1.52;70.24
64034;SHT31;50280;49.864;8.638;2022-12-18T12:48:52;-1.50;70.42
64034;SHT31;50280;49.864;8.638;2022-12-18T12:51:28;-1.51;70.27
64034;SHT31;50280;49.864;8.638;2022-12-18T12:54:20;-1.55;70.25
64034;SHT31;50280;49.864;8.638;2022-12-18T12:56:57;-1.61;70.57
64034;SHT31;50280;49.864;8.638;2022-12-18T12:59:41;-1.66;70.75
64034;SHT31;50280;49.864;8.638;2022-12-18T13:02:28;-1.66;71.08
64034;SHT31;50280;49.864;8.638;2022-12-18T13:05:09;-1.72;71.18
64034;SHT31;50280;49.864;8.638;2022-12-18T13:07:56;-1.76;71.33
64034;SHT31;50280;49.864;8.638;2022-12-18T13:10:36;-1.83;71.25
64034;SHT31;50280;49.864;8.638;2022-12-18T13:13:11;-1.87;71.75
64034;SHT31;50280;49.864;8.638;2022-12-18T13:15:45;-1.89;72.12
64034;SHT31;50280;49.864;8.638;2022-12-18T13:18:20;-1.93;72.40
64034;SHT31;50280;49.864;8.638;2022-12-18T13:21:01;-2.00;72.51
64034;SHT31;50280;49.864;8.638;2022-12-18T13:23:54;-2.10;72.71
64034;SHT31;50280;49.864;8.638;2022-12-18T13:26:29;-2.15;73.65
64034;SHT31;50280;49.864;8.638;2022-12-18T13:29:03;-2.23;73.57
64034;SHT31;50280;49.864;8.638;2022-12-18T13:31:58;-2.30;73.88
64034;SHT31;50280;49.864;8.638;2022-12-18T13:34:32;-2.37;74.32
64034;SHT31;50280;49.864;8.638;2022-12-18T13:43:32;-2.46;75.26
64034;SHT31;50280;49.864;8.638;2022-12-18T13:46:20;-2.49;75.71
64034;SHT31;50280;49.864;8.638;2022-12-18T13:48:58;-2.54;75.81
64034;SHT31;50280;49.864;8.638;2022-12-18T13:51:34;-2.51;75.93
64034;SHT31;50280;49.864;8.638;2022-12-18T13:54:13;-2.54;76.15
64034;SHT31;50280;49.864;8.638;2022-12-18T13:56:53;-2.54;76.22
64034;SHT31;50280;49.864;8.638;2022-12-18T13:59:32;-2.58;76.24
64034;SHT31;50280;49.864;8.638;2022-12-18T14:02:13;-2.61;76.44
64034;SHT31;50280;49.864;8.638;2022-12-18T14:04:49;-2.62;76.60
64034;SHT31;50280;49.864;8.638;2022-12-18T14:07:24;-2.63;76.87
64034;SHT31;50280;49.864;8.638;2022-12-18T14:09:59;-2.63;77.04
64034;SHT31;50280;49.864;8.638;2022-12-18T14:12:33;-2.65;76.98
64034;SHT31;50280;49.864;8.638;2022-12-18T14:15:14;-2.66;77.11
64034;SHT31;50280;49.864;8.638;2022-12-18T14:18:00;-2.66;77.34
64034;SHT31;50280;49.864;8.638;2022-12-18T14:20:44;-2.69;77.52
64034;SHT31;50280;49.864;8.638;2022-12-18T14:26:19;-2.79;77.73
64034;SHT31;50280;49.864;8.638;2022-12-18T14:28:55;-2.82;78.05
64034;SHT31;50280;49.864;8.638;2022-12-18T14:31:31;-2.83;78.10
64034;SHT31;50280;49.864;8.638;2022-12-18T14:34:03;-2.83;78.39
64034;SHT31;50280;49.864;8.638;2022-12-18T14:36:35;-2.84;78.36
64034;SHT31;50280;49.864;8.638;2022-12-18T14:39:13;-2.89;78.57
64034;SHT31;50280;49.864;8.638;2022-12-18T14:41:49;-2.91;78.70
64034;SHT31;50280;49.864;8.638;2022-12-18T14:44:21;-2.96;78.78
64034;SHT31;50280;49.864;8.638;2022-12-18T14:46:54;-2.96;79.06
64034;SHT31;50280;49.864;8.638;2022-12-18T14:49:29;-2.99;79.21
64034;SHT31;50280;49.864;8.638;2022-12-18T14:52:04;-3.00;79.40
64034;SHT31;50280;49.864;8.638;2022-12-18T14:54:50;-3.05;79.52
64034;SHT31;50280;49.864;8.638;2022-12-18T14:57:24;-3.07;79.75
64034;SHT31;50280;49.864;8.638;2022-12-18T15:00:04;-3.10;79.91
64034;SHT31;50280;49.864;8.638;2022-12-18T15:02:39;-3.12;80.15
64034;SHT31;50280;49.864;8.638;2022-12-18T15:05:16;-3.15;80.17
64034;SHT31;50280;49.864;8.638;2022-12-18T15:07:51;-3.17;80.36
64034;SHT31;50280;49.864;8.638;2022-12-18T15:10:27;-3.19;80.54
64034;SHT31;50280;49.864;8.638;2022-12-18T15:13:08;-3.24;80.77
64034;SHT31;50280;49.864;8.638;2022-12-18T15:15:53;-3.27;81.04
64034;SHT31;50280;49.864;8.638;2022-12-18T15:18:31;-3.30;81.04
64034;SHT31;50280;49.864;8.638;2022-12-18T15:21:15;-3.30;81.05
64034;SHT31;50280;49.864;8.638;2022-12-18T15:23:50;-3.31;81.18
64034;SHT31;50280;49.864;8.638;2022-12-18T15:26:24;-3.35;81.37
64034;SHT31;50280;49.864;8.638;2022-12-18T15:28:56;-3.38;81.57
64034;SHT31;50280;49.864;8.638;2022-12-18T15:31:29;-3.39;81.61
64034;SHT31;50280;49.864;8.638;2022-12-18T15:34:16;-3.45;81.55
64034;SHT31;50280;49.864;8.638;2022-12-18T15:36:53;-3.46;81.79
64034;SHT31;50280;49.864;8.638;2022-12-18T15:39:25;-3.49;81.99
64034;SHT31;50280;49.864;8.638;2022-12-18T15:41:57;-3.51;82.15
64034;SHT31;50280;49.864;8.638;2022-12-18T15:44:29;-3.53;82.33
64034;SHT31;50280;49.864;8.638;2022-12-18T15:47:01;-3.53;82.36
64034;SHT31;50280;49.864;8.638;2022-12-18T15:49:35;-3.56;82.47
64034;SHT31;50280;49.864;8.638;2022-12-18T15:52:07;-3.56;82.63
64034;SHT31;50280;49.864;8.638;2022-12-18T15:54:47;-3.60;82.59
64034;SHT31;50280;49.864;8.638;2022-12-18T15:57:19;-3.63;82.77
64034;SHT31;50280;49.864;8.638;2022-12-18T15:59:51;-3.64;82.77
64034;SHT31;50280;49.864;8.638;2022-12-18T16:02:26;-3.66;82.83
64034;SHT31;50280;49.864;8.638;2022-12-18T16:04:59;-3.67;82.79
64034;SHT31;50280;49.864;8.638;2022-12-18T16:07:31;-3.67;82.69
64034;SHT31;50280;49.864;8.638;2022-12-18T16:10:04;-3.69;82.67
64034;SHT31;50280;49.864;8.638;2022-12-18T16:12:36;-3.73;82.80
64034;SHT31;50280;49.864;8.638;2022-12-18T16:15:10;-3.76;82.85
64034;SHT31;50280;49.864;8.638;2022-12-18T16:17:45;-3.77;83.03
64034;SHT31;50280;49.864;8.638;2022-12-18T16:20:21;-3.79;83.05
64034;SHT31;50280;49.864;8.638;2022-12-18T16:22:54;-3.81;83.11
64034;SHT31;50280;49.864;8.638;2022-12-18T16:25:27;-3.83;83.22
64034;SHT31;50280;49.864;8.638;2022-12-18T16:28:00;-3.86;83.30
64034;SHT31;50280;49.864;8.638;2022-12-18T16:30:32;-3.91;83.38
64034;SHT31;50280;49.864;8.638;2022-12-18T16:33:04;-3.93;83.48
64034;SHT31;50280;49.864;8.638;2022-12-18T16:35:38;-3.95;83.64
64034;SHT31;50280;49.864;8.638;2022-12-18T16:38:10;-3.98;83.79